sensor_id;sensor_type;location;lat;lon;timestamp;P1;P2;P0
49644;PMS5003;36494;50.730;-1.932;2023-04-03T00:01:51;12;12;
49644;PMS5003;36494;50.730;-1.932;2023-04-03T00:04:17;13;12;
49644;PMS5003;36494;50.730;-1.932;2023-04-03T00:06:42;9;9;
49644;PMS5003;36494;50.730;-1.932;2023-04-03T00:09:07;9;8;
49644;PMS5003;36494;50.730;-1.932;2023-04-03T00:11:33;11;10;
49644;PMS5003;36494;50.730;-1.932;2023-04-03T00:13:58;10;9;
49644;PMS5003;36494;50.730;-1.932;2023-04-03T00:16:23;9;9;
49644;PMS5003;36494;50.730;-1.932;2023-04-03T00:18:49;12;12;
49644;PMS5003;36494;50.730;-1.932;2023-04-03T00:21:14;13;12;
49644;PMS5003;36494;50.730;-1.932;2023-04-03T00:23:40;9;9;
49644;PMS5003;36494;50.730;-1.932;2023-04-03T00:26:05;12;12;
49644;PMS5003;36494;50.730;-1.932;2023-04-03T00:28:31;11;11;
49644;PMS5003;36494;50.730;-1.932;2023-04-03T00:30:57;13;13;
49644;PMS5003;36494;50.730;-1.932;2023-04-03T00:33:22;12;11;
49644;PMS5003;36494;50.730;-1.932;2023-04-03T00:35:47;11;10;
49644;PMS5003;36494;50.730;-1.932;2023-04-03T00:38:13;11;11;
49644;PMS5003;36494;50.730;-1.932;2023-04-03T00:40:39;11;11;
49644;PMS5003;36494;50.730;-1.932;2023-04-03T00:43:08;10;10;
49644;PMS5003;36494;50.730;-1.932;2023-04-03T00:45:31;11;10;
49644;PMS5003;36494;50.730;-1.932;2023-04-03T00:47:55;10;10;
49644;PMS5003;36494;50.730;-1.932;2023-04-03T00:50:20;12;12;
49644;PMS5003;36494;50.730;-1.932;2023-04-03T00:52:46;11;11;
49644;PMS5003;36494;50.730;-1.932;2023-04-03T00:55:11;10;10;
49644;PMS5003;36494;50.730;-1.932;2023-04-03T00:57:37;13;13;
49644;PMS5003;36494;50.730;-1.932;2023-04-03T01:00:04;10;10;
49644;PMS5003;36494;50.730;-1.932;2023-04-03T01:02:27;12;10;
49644;PMS5003;36494;50.730;-1.932;2023-04-03T01:04:53;10;10;
49644;PMS5003;36494;50.730;-1.932;2023-04-03T01:07:19;10;10;
49644;PMS5003;36494;50.730;-1.932;2023-04-03T01:09:43;13;13;
49644;PMS5003;36494;50.730;-1.932;2023-04-03T01:12:13;12;11;
49644;PMS5003;36494;50.730;-1.932;2023-04-03T01:14:34;11;10;
49644;PMS5003;36494;50.730;-1.932;2023-04-03T01:17:00;10;10;
49644;PMS5003;36494;50.730;-1.932;2023-04-03T01:19:25;10;10;
49644;PMS5003;36494;50.730;-1.932;2023-04-03T01:21:54;13;13;
49644;PMS5003;36494;50.730;-1.932;2023-04-03T01:24:23;13;13;
49644;PMS5003;36494;50.730;-1.932;2023-04-03T01:26:42;12;11;
49644;PMS5003;36494;50.730;-1.932;2023-04-03T01:29:07;12;11;
49644;PMS5003;36494;50.730;-1.932;2023-04-03T01:33:58;13;12;
49644;PMS5003;36494;50.730;-1.932;2023-04-03T01:36:24;10;10;
49644;PMS5003;36494;50.730;-1.932;2023-04-03T01:38:49;9;9;
49644;PMS5003;36494;50.730;-1.932;2023-04-03T01:41:14;13;11;
49644;PMS5003;36494;50.730;-1.932;2023-04-03T01:43:40;11;10;
49644;PMS5003;36494;50.730;-1.932;2023-04-03T01:46:05;11;11;
49644;PMS5003;36494;50.730;-1.932;2023-04-03T01:48:31;10;9;
49644;PMS5003;36494;50.730;-1.932;2023-04-03T01:50:56;12;10;
49644;PMS5003;36494;50.730;-1.932;2023-04-03T01:53:22;11;11;
49644;PMS5003;36494;50.730;-1.932;2023-04-03T01:55:48;10;10;
49644;PMS5003;36494;50.730;-1.932;2023-04-03T01:58:13;9;9;
49644;PMS5003;36494;50.730;-1.932;2023-04-03T02:00:38;11;11;
49644;PMS5003;36494;50.730;-1.932;2023-04-03T02:03:03;10;9;
49644;PMS5003;36494;50.730;-1.932;2023-04-03T02:05:28;12;11;
49644;PMS5003;36494;50.730;-1.932;2023-04-03T02:07:54;10;10;
49644;PMS5003;36494;50.730;-1.932;2023-04-03T02:10:19;7;7;
49644;PMS5003;36494;50.730;-1.932;2023-04-03T02:12:44;6;6;
49644;PMS5003;36494;50.730;-1.932;2023-04-03T02:15:10;5;5;
49644;PMS5003;36494;50.730;-1.932;2023-04-03T02:17:35;7;7;
49644;PMS5003;36494;50.730;-1.932;2023-04-03T02:20:01;6;6;
49644;PMS5003;36494;50.730;-1.932;2023-04-03T02:22:26;6;6;
49644;PMS5003;36494;50.730;-1.932;2023-04-03T02:24:52;7;6;
49644;PMS5003;36494;50.730;-1.932;2023-04-03T02:27:18;6;6;
49644;PMS5003;36494;50.730;-1.932;2023-04-03T02:29:43;7;6;
49644;PMS5003;36494;50.730;-1.932;2023-04-03T02:32:09;4;4;
49644;PMS5003;36494;50.730;-1.932;2023-04-03T02:34:34;5;4;
49644;PMS5003;36494;50.730;-1.932;2023-04-03T02:37:00;5;5;
49644;PMS5003;36494;50.730;-1.932;2023-04-03T02:39:25;5;5;
49644;PMS5003;36494;50.730;-1.932;2023-04-03T02:41:50;6;5;
49644;PMS5003;36494;50.730;-1.932;2023-04-03T02:44:16;5;5;
49644;PMS5003;36494;50.730;-1.932;2023-04-03T02:46:41;5;3;
49644;PMS5003;36494;50.730;-1.932;2023-04-03T02:49:07;3;3;
49644;PMS5003;36494;50.730;-1.932;2023-04-03T02:51:32;5;4;
49644;PMS5003;36494;50.730;-1.932;2023-04-03T02:53:58;6;4;
49644;PMS5003;36494;50.730;-1.932;2023-04-03T02:56:24;7;5;
49644;PMS5003;36494;50.730;-1.932;2023-04-03T02:58:49;8;6;
49644;PMS5003;36494;50.730;-1.932;2023-04-03T03:01:14;5;4;
49644;PMS5003;36494;50.730;-1.932;2023-04-03T03:03:40;5;5;
49644;PMS5003;36494;50.730;-1.932;2023-04-03T03:06:06;6;6;
49644;PMS5003;36494;50.730;-1.932;2023-04-03T03:08:31;5;5;
49644;PMS5003;36494;50.730;-1.932;2023-04-03T03:10:56;6;6;
49644;PMS5003;36494;50.730;-1.932;2023-04-03T03:13:22;6;5;
49644;PMS5003;36494;50.730;-1.932;2023-04-03T03:15:47;6;5;
49644;PMS5003;36494;50.730;-1.932;2023-04-03T03:18:13;6;5;
49644;PMS5003;36494;50.730;-1.932;2023-04-03T03:20:38;6;6;
49644;PMS5003;36494;50.730;-1.932;2023-04-03T03:23:04;6;6;
49644;PMS5003;36494;50.730;-1.932;2023-04-03T03:25:29;7;6;
49644;PMS5003;36494;50.730;-1.932;2023-04-03T03:27:55;7;7;
49644;PMS5003;36494;50.730;-1.932;2023-04-03T03:30:20;10;7;
49644;PMS5003;36494;50.730;-1.932;2023-04-03T03:32:45;8;7;
49644;PMS5003;36494;50.730;-1.932;2023-04-03T03:35:11;7;7;
49644;PMS5003;36494;50.730;-1.932;2023-04-03T03:37:36;5;5;
49644;PMS5003;36494;50.730;-1.932;2023-04-03T03:40:02;7;7;
49644;PMS5003;36494;50.730;-1.932;2023-04-03T03:42:28;9;9;
49644;PMS5003;36494;50.730;-1.932;2023-04-03T03:44:53;6;6;
49644;PMS5003;36494;50.730;-1.932;2023-04-03T03:47:18;8;6;
49644;PMS5003;36494;50.730;-1.932;2023-04-03T03:49:43;8;8;
49644;PMS5003;36494;50.730;-1.932;2023-04-03T03:52:09;6;5;
49644;PMS5003;36494;50.730;-1.932;2023-04-03T03:54:34;8;8;
49644;PMS5003;36494;50.730;-1.932;2023-04-03T03:57:00;8;8;
49644;PMS5003;36494;50.730;-1.932;2023-04-03T03:59:25;7;6;
49644;PMS5003;36494;50.730;-1.932;2023-04-03T04:01:51;8;7;
49644;PMS5003;36494;50.730;-1.932;2023-04-03T04:04:16;7;6;
49644;PMS5003;36494;50.730;-1.932;2023-04-03T04:06:42;8;7;
49644;PMS5003;36494;50.730;-1.932;2023-04-03T04:09:08;7;7;
49644;PMS5003;36494;50.730;-1.932;2023-04-03T04:11:32;6;6;
49644;PMS5003;36494;50.730;-1.932;2023-04-03T04:13:58;7;7;
49644;PMS5003;36494;50.730;-1.932;2023-04-03T04:16:23;8;8;
49644;PMS5003;36494;50.730;-1.932;2023-04-03T04:18:48;9;8;
49644;PMS5003;36494;50.730;-1.932;2023-04-03T04:21:14;13;11;
49644;PMS5003;36494;50.730;-1.932;2023-04-03T04:23:39;8;8;
49644;PMS5003;36494;50.730;-1.932;2023-04-03T04:26:05;7;7;
49644;PMS5003;36494;50.730;-1.932;2023-04-03T04:28:30;7;7;
49644;PMS5003;36494;50.730;-1.932;2023-04-03T04:30:56;8;7;
49644;PMS5003;36494;50.730;-1.932;2023-04-03T04:33:21;7;7;
49644;PMS5003;36494;50.730;-1.932;2023-04-03T04:35:47;7;7;
49644;PMS5003;36494;50.730;-1.932;2023-04-03T04:38:12;6;6;
49644;PMS5003;36494;50.730;-1.932;2023-04-03T04:40:38;7;7;
49644;PMS5003;36494;50.730;-1.932;2023-04-03T04:43:03;6;6;
49644;PMS5003;36494;50.730;-1.932;2023-04-03T04:45:29;8;8;
49644;PMS5003;36494;50.730;-1.932;2023-04-03T04:47:54;8;8;
49644;PMS5003;36494;50.730;-1.932;2023-04-03T04:50:19;10;10;
49644;PMS5003;36494;50.730;-1.932;2023-04-03T04:52:45;9;9;
49644;PMS5003;36494;50.730;-1.932;2023-04-03T04:55:11;8;7;
49644;PMS5003;36494;50.730;-1.932;2023-04-03T04:57:36;8;8;
49644;PMS5003;36494;50.730;-1.932;2023-04-03T05:00:02;8;8;
49644;PMS5003;36494;50.730;-1.932;2023-04-03T05:02:27;10;9;
49644;PMS5003;36494;50.730;-1.932;2023-04-03T05:04:53;8;7;
49644;PMS5003;36494;50.730;-1.932;2023-04-03T05:07:18;6;6;
49644;PMS5003;36494;50.730;-1.932;2023-04-03T05:09:44;7;6;
49644;PMS5003;36494;50.730;-1.932;2023-04-03T05:12:09;7;6;
49644;PMS5003;36494;50.730;-1.932;2023-04-03T05:14:35;9;9;
49644;PMS5003;36494;50.730;-1.932;2023-04-03T05:17:00;8;7;
49644;PMS5003;36494;50.730;-1.932;2023-04-03T05:19:25;9;9;
49644;PMS5003;36494;50.730;-1.932;2023-04-03T05:21:50;9;8;
49644;PMS5003;36494;50.730;-1.932;2023-04-03T05:24:16;9;8;
49644;PMS5003;36494;50.730;-1.932;2023-04-03T05:26:41;11;9;
49644;PMS5003;36494;50.730;-1.932;2023-04-03T05:29:07;8;8;
49644;PMS5003;36494;50.730;-1.932;2023-04-03T05:31:32;8;7;
49644;PMS5003;36494;50.730;-1.932;2023-04-03T05:33:58;9;8;
49644;PMS5003;36494;50.730;-1.932;2023-04-03T05:36:23;10;10;
49644;PMS5003;36494;50.730;-1.932;2023-04-03T05:38:48;10;9;
49644;PMS5003;36494;50.730;-1.932;2023-04-03T05:41:14;8;7;
49644;PMS5003;36494;50.730;-1.932;2023-04-03T05:43:39;11;10;
49644;PMS5003;36494;50.730;-1.932;2023-04-03T05:46:08;8;8;
49644;PMS5003;36494;50.730;-1.932;2023-04-03T05:48:30;10;10;
49644;PMS5003;36494;50.730;-1.932;2023-04-03T05:50:56;10;9;
49644;PMS5003;36494;50.730;-1.932;2023-04-03T05:53:22;10;9;
49644;PMS5003;36494;50.730;-1.932;2023-04-03T05:55:47;9;9;
49644;PMS5003;36494;50.730;-1.932;2023-04-03T05:58:12;8;8;
49644;PMS5003;36494;50.730;-1.932;2023-04-03T06:00:38;10;10;
49644;PMS5003;36494;50.730;-1.932;2023-04-03T06:03:03;9;8;
49644;PMS5003;36494;50.730;-1.932;2023-04-03T06:05:29;10;10;
49644;PMS5003;36494;50.730;-1.932;2023-04-03T06:07:54;10;9;
49644;PMS5003;36494;50.730;-1.932;2023-04-03T06:10:20;11;8;
49644;PMS5003;36494;50.730;-1.932;2023-04-03T06:12:45;10;9;
49644;PMS5003;36494;50.730;-1.932;2023-04-03T06:15:10;11;10;
49644;PMS5003;36494;50.730;-1.932;2023-04-03T06:17:36;9;7;
49644;PMS5003;36494;50.730;-1.932;2023-04-03T06:20:02;11;11;
49644;PMS5003;36494;50.730;-1.932;2023-04-03T06:22:27;11;11;
49644;PMS5003;36494;50.730;-1.932;2023-04-03T06:24:53;11;9;
49644;PMS5003;36494;50.730;-1.932;2023-04-03T06:27:18;12;11;
49644;PMS5003;36494;50.730;-1.932;2023-04-03T06:29:44;8;8;
49644;PMS5003;36494;50.730;-1.932;2023-04-03T06:32:10;13;12;
49644;PMS5003;36494;50.730;-1.932;2023-04-03T06:34:35;9;8;
49644;PMS5003;36494;50.730;-1.932;2023-04-03T06:37:01;9;9;
49644;PMS5003;36494;50.730;-1.932;2023-04-03T06:39:26;8;8;
49644;PMS5003;36494;50.730;-1.932;2023-04-03T06:41:52;10;10;
49644;PMS5003;36494;50.730;-1.932;2023-04-03T06:44:17;8;8;
49644;PMS5003;36494;50.730;-1.932;2023-04-03T06:46:43;10;10;
49644;PMS5003;36494;50.730;-1.932;2023-04-03T06:49:08;13;11;
49644;PMS5003;36494;50.730;-1.932;2023-04-03T06:51:34;11;10;
49644;PMS5003;36494;50.730;-1.932;2023-04-03T06:53:59;9;9;
49644;PMS5003;36494;50.730;-1.932;2023-04-03T06:56:25;11;10;
49644;PMS5003;36494;50.730;-1.932;2023-04-03T06:58:49;12;12;
49644;PMS5003;36494;50.730;-1.932;2023-04-03T07:01:16;8;8;
49644;PMS5003;36494;50.730;-1.932;2023-04-03T07:03:41;9;8;
49644;PMS5003;36494;50.730;-1.932;2023-04-03T07:06:06;13;12;
49644;PMS5003;36494;50.730;-1.932;2023-04-03T07:08:32;10;9;
49644;PMS5003;36494;50.730;-1.932;2023-04-03T07:10:57;10;10;
49644;PMS5003;36494;50.730;-1.932;2023-04-03T07:13:22;11;11;
49644;PMS5003;36494;50.730;-1.932;2023-04-03T07:15:47;11;10;
49644;PMS5003;36494;50.730;-1.932;2023-04-03T07:18:13;11;11;
49644;PMS5003;36494;50.730;-1.932;2023-04-03T07:20:38;11;11;
49644;PMS5003;36494;50.730;-1.932;2023-04-03T07:23:03;10;9;
49644;PMS5003;36494;50.730;-1.932;2023-04-03T07:25:29;11;9;
49644;PMS5003;36494;50.730;-1.932;2023-04-03T07:27:54;12;12;
49644;PMS5003;36494;50.730;-1.932;2023-04-03T07:30:20;11;9;
49644;PMS5003;36494;50.730;-1.932;2023-04-03T07:32:45;10;9;
49644;PMS5003;36494;50.730;-1.932;2023-04-03T07:35:11;10;9;
49644;PMS5003;36494;50.730;-1.932;2023-04-03T07:37:36;12;9;
49644;PMS5003;36494;50.730;-1.932;2023-04-03T07:40:02;10;9;
49644;PMS5003;36494;50.730;-1.932;2023-04-03T07:42:27;11;9;
49644;PMS5003;36494;50.730;-1.932;2023-04-03T07:44:53;11;9;
49644;PMS5003;36494;50.730;-1.932;2023-04-03T07:47:18;12;11;
49644;PMS5003;36494;50.730;-1.932;2023-04-03T07:49:44;9;9;
49644;PMS5003;36494;50.730;-1.932;2023-04-03T07:52:09;9;9;
49644;PMS5003;36494;50.730;-1.932;2023-04-03T07:54:34;8;8;
49644;PMS5003;36494;50.730;-1.932;2023-04-03T07:57:00;12;11;
49644;PMS5003;36494;50.730;-1.932;2023-04-03T07:59:26;9;9;
49644;PMS5003;36494;50.730;-1.932;2023-04-03T08:01:51;8;7;
49644;PMS5003;36494;50.730;-1.932;2023-04-03T08:04:17;8;8;
49644;PMS5003;36494;50.730;-1.932;2023-04-03T08:06:42;11;11;
49644;PMS5003;36494;50.730;-1.932;2023-04-03T08:09:07;11;9;
49644;PMS5003;36494;50.730;-1.932;2023-04-03T08:11:33;12;9;
49644;PMS5003;36494;50.730;-1.932;2023-04-03T08:13:58;12;12;
49644;PMS5003;36494;50.730;-1.932;2023-04-03T08:16:24;9;9;
49644;PMS5003;36494;50.730;-1.932;2023-04-03T08:18:49;9;9;
49644;PMS5003;36494;50.730;-1.932;2023-04-03T08:21:14;11;11;
49644;PMS5003;36494;50.730;-1.932;2023-04-03T08:23:40;10;10;
49644;PMS5003;36494;50.730;-1.932;2023-04-03T08:26:06;11;11;
49644;PMS5003;36494;50.730;-1.932;2023-04-03T08:28:30;10;9;
49644;PMS5003;36494;50.730;-1.932;2023-04-03T08:30:56;12;12;
49644;PMS5003;36494;50.730;-1.932;2023-04-03T08:33:21;12;11;
49644;PMS5003;36494;50.730;-1.932;2023-04-03T08:35:46;10;10;
49644;PMS5003;36494;50.730;-1.932;2023-04-03T08:38:12;9;8;
49644;PMS5003;36494;50.730;-1.932;2023-04-03T08:40:37;10;10;
49644;PMS5003;36494;50.730;-1.932;2023-04-03T08:43:05;10;10;
49644;PMS5003;36494;50.730;-1.932;2023-04-03T08:45:31;11;10;
49644;PMS5003;36494;50.730;-1.932;2023-04-03T08:47:55;12;10;
49644;PMS5003;36494;50.730;-1.932;2023-04-03T08:50:28;13;13;
49644;PMS5003;36494;50.730;-1.932;2023-04-03T08:52:45;11;10;
49644;PMS5003;36494;50.730;-1.932;2023-04-03T08:55:14;10;10;
49644;PMS5003;36494;50.730;-1.932;2023-04-03T08:57:36;12;12;
49644;PMS5003;36494;50.730;-1.932;2023-04-03T09:00:03;12;12;
49644;PMS5003;36494;50.730;-1.932;2023-04-03T09:02:27;14;13;
49644;PMS5003;36494;50.730;-1.932;2023-04-03T09:04:52;13;12;
49644;PMS5003;36494;50.730;-1.932;2023-04-03T09:07:19;12;12;
49644;PMS5003;36494;50.730;-1.932;2023-04-03T09:09:42;39;39;
49644;PMS5003;36494;50.730;-1.932;2023-04-03T09:12:12;21;21;
49644;PMS5003;36494;50.730;-1.932;2023-04-03T09:14:35;26;25;
49644;PMS5003;36494;50.730;-1.932;2023-04-03T09:16:59;24;23;
49644;PMS5003;36494;50.730;-1.932;2023-04-03T09:19:27;21;21;
49644;PMS5003;36494;50.730;-1.932;2023-04-03T09:21:49;18;18;
49644;PMS5003;36494;50.730;-1.932;2023-04-03T09:24:15;19;18;
49644;PMS5003;36494;50.730;-1.932;2023-04-03T09:26:42;15;15;
49644;PMS5003;36494;50.730;-1.932;2023-04-03T09:29:06;17;17;
49644;PMS5003;36494;50.730;-1.932;2023-04-03T09:31:35;18;17;
49644;PMS5003;36494;50.730;-1.932;2023-04-03T09:33:58;16;16;
49644;PMS5003;36494;50.730;-1.932;2023-04-03T09:41:13;13;13;
49644;PMS5003;36494;50.730;-1.932;2023-04-03T09:43:38;14;14;
49644;PMS5003;36494;50.730;-1.932;2023-04-03T09:48:28;15;15;
49644;PMS5003;36494;50.730;-1.932;2023-04-03T09:50:55;24;22;
49644;PMS5003;36494;50.730;-1.932;2023-04-03T09:53:24;24;23;
49644;PMS5003;36494;50.730;-1.932;2023-04-03T09:55:45;25;25;
49644;PMS5003;36494;50.730;-1.932;2023-04-03T10:00:36;23;23;
49644;PMS5003;36494;50.730;-1.932;2023-04-03T10:03:02;28;27;
49644;PMS5003;36494;50.730;-1.932;2023-04-03T10:05:29;26;25;
49644;PMS5003;36494;50.730;-1.932;2023-04-03T10:07:52;29;28;
49644;PMS5003;36494;50.730;-1.932;2023-04-03T10:10:19;22;21;
49644;PMS5003;36494;50.730;-1.932;2023-04-03T10:12:44;28;26;
49644;PMS5003;36494;50.730;-1.932;2023-04-03T10:15:10;28;27;
49644;PMS5003;36494;50.730;-1.932;2023-04-03T10:17:37;22;22;
49644;PMS5003;36494;50.730;-1.932;2023-04-03T10:20:00;26;24;
49644;PMS5003;36494;50.730;-1.932;2023-04-03T10:22:27;21;21;
49644;PMS5003;36494;50.730;-1.932;2023-04-03T10:24:52;28;26;
49644;PMS5003;36494;50.730;-1.932;2023-04-03T10:27:16;23;22;
49644;PMS5003;36494;50.730;-1.932;2023-04-03T10:29:43;20;19;
49644;PMS5003;36494;50.730;-1.932;2023-04-03T10:32:12;20;20;
49644;PMS5003;36494;50.730;-1.932;2023-04-03T10:34:32;23;22;
49644;PMS5003;36494;50.730;-1.932;2023-04-03T10:36:58;19;19;
49644;PMS5003;36494;50.730;-1.932;2023-04-03T10:39:23;18;17;
49644;PMS5003;36494;50.730;-1.932;2023-04-03T10:41:50;22;22;
49644;PMS5003;36494;50.730;-1.932;2023-04-03T10:44:15;23;23;
49644;PMS5003;36494;50.730;-1.932;2023-04-03T10:46:38;19;19;
49644;PMS5003;36494;50.730;-1.932;2023-04-03T10:49:06;22;22;
49644;PMS5003;36494;50.730;-1.932;2023-04-03T10:51:29;20;20;
49644;PMS5003;36494;50.730;-1.932;2023-04-03T10:53:55;18;18;
49644;PMS5003;36494;50.730;-1.932;2023-04-03T10:56:21;19;19;
49644;PMS5003;36494;50.730;-1.932;2023-04-03T10:58:45;18;17;
49644;PMS5003;36494;50.730;-1.932;2023-04-03T11:01:11;17;16;
49644;PMS5003;36494;50.730;-1.932;2023-04-03T11:03:36;18;18;
49644;PMS5003;36494;50.730;-1.932;2023-04-03T11:06:01;18;18;
49644;PMS5003;36494;50.730;-1.932;2023-04-03T11:08:26;18;18;
49644;PMS5003;36494;50.730;-1.932;2023-04-03T11:10:50;16;16;
49644;PMS5003;36494;50.730;-1.932;2023-04-03T11:13:17;18;17;
49644;PMS5003;36494;50.730;-1.932;2023-04-03T11:15:40;14;14;
49644;PMS5003;36494;50.730;-1.932;2023-04-03T11:18:06;13;12;
49644;PMS5003;36494;50.730;-1.932;2023-04-03T11:20:32;16;15;
49644;PMS5003;36494;50.730;-1.932;2023-04-03T11:22:57;17;17;
49644;PMS5003;36494;50.730;-1.932;2023-04-03T11:25:22;14;14;
49644;PMS5003;36494;50.730;-1.932;2023-04-03T11:27:48;15;15;
49644;PMS5003;36494;50.730;-1.932;2023-04-03T11:30:14;12;12;
49644;PMS5003;36494;50.730;-1.932;2023-04-03T11:32:48;11;11;
49644;PMS5003;36494;50.730;-1.932;2023-04-03T11:35:04;10;10;
49644;PMS5003;36494;50.730;-1.932;2023-04-03T11:37:29;13;12;
49644;PMS5003;36494;50.730;-1.932;2023-04-03T11:39:54;12;11;
49644;PMS5003;36494;50.730;-1.932;2023-04-03T11:42:24;13;12;
49644;PMS5003;36494;50.730;-1.932;2023-04-03T11:44:44;11;10;
49644;PMS5003;36494;50.730;-1.932;2023-04-03T11:47:10;13;13;
49644;PMS5003;36494;50.730;-1.932;2023-04-03T11:52:00;9;9;
49644;PMS5003;36494;50.730;-1.932;2023-04-03T11:56:51;11;10;
49644;PMS5003;36494;50.730;-1.932;2023-04-03T11:59:23;10;10;
49644;PMS5003;36494;50.730;-1.932;2023-04-03T12:01:43;9;9;
49644;PMS5003;36494;50.730;-1.932;2023-04-03T12:04:08;10;10;
49644;PMS5003;36494;50.730;-1.932;2023-04-03T12:08:58;9;9;
49644;PMS5003;36494;50.730;-1.932;2023-04-03T12:11:24;10;10;
49644;PMS5003;36494;50.730;-1.932;2023-04-03T12:16:19;10;10;
49644;PMS5003;36494;50.730;-1.932;2023-04-03T12:18:42;11;11;
49644;PMS5003;36494;50.730;-1.932;2023-04-03T12:21:05;14;14;
49644;PMS5003;36494;50.730;-1.932;2023-04-03T12:23:31;12;12;
49644;PMS5003;36494;50.730;-1.932;2023-04-03T12:26:00;10;10;
49644;PMS5003;36494;50.730;-1.932;2023-04-03T12:28:22;11;10;
49644;PMS5003;36494;50.730;-1.932;2023-04-03T12:30:48;10;10;
49644;PMS5003;36494;50.730;-1.932;2023-04-03T12:33:17;11;11;
49644;PMS5003;36494;50.730;-1.932;2023-04-03T12:35:39;12;12;
49644;PMS5003;36494;50.730;-1.932;2023-04-03T12:38:16;12;12;
49644;PMS5003;36494;50.730;-1.932;2023-04-03T12:40:30;11;11;
49644;PMS5003;36494;50.730;-1.932;2023-04-03T12:42:58;10;10;
49644;PMS5003;36494;50.730;-1.932;2023-04-03T12:45:20;12;12;
49644;PMS5003;36494;50.730;-1.932;2023-04-03T12:47:45;12;12;
49644;PMS5003;36494;50.730;-1.932;2023-04-03T12:50:17;10;10;
49644;PMS5003;36494;50.730;-1.932;2023-04-03T12:52:37;12;12;
49644;PMS5003;36494;50.730;-1.932;2023-04-03T12:55:01;11;11;
49644;PMS5003;36494;50.730;-1.932;2023-04-03T12:57:26;11;11;
49644;PMS5003;36494;50.730;-1.932;2023-04-03T12:59:51;11;11;
49644;PMS5003;36494;50.730;-1.932;2023-04-03T13:02:20;12;12;
49644;PMS5003;36494;50.730;-1.932;2023-04-03T13:04:43;15;14;
49644;PMS5003;36494;50.730;-1.932;2023-04-03T13:09:34;14;13;
49644;PMS5003;36494;50.730;-1.932;2023-04-03T13:12:01;13;13;
49644;PMS5003;36494;50.730;-1.932;2023-04-03T13:14:26;13;13;
49644;PMS5003;36494;50.730;-1.932;2023-04-03T13:16:53;17;16;
49644;PMS5003;36494;50.730;-1.932;2023-04-03T13:19:17;16;15;
49644;PMS5003;36494;50.730;-1.932;2023-04-03T13:21:42;15;15;
49644;PMS5003;36494;50.730;-1.932;2023-04-03T13:24:08;18;18;
49644;PMS5003;36494;50.730;-1.932;2023-04-03T13:26:33;15;15;
49644;PMS5003;36494;50.730;-1.932;2023-04-03T13:29:00;18;18;
49644;PMS5003;36494;50.730;-1.932;2023-04-03T13:31:26;15;15;
49644;PMS5003;36494;50.730;-1.932;2023-04-03T13:33:54;16;16;
49644;PMS5003;36494;50.730;-1.932;2023-04-03T13:36:17;16;16;
49644;PMS5003;36494;50.730;-1.932;2023-04-03T13:38:42;17;16;
49644;PMS5003;36494;50.730;-1.932;2023-04-03T13:43:33;16;16;
49644;PMS5003;36494;50.730;-1.932;2023-04-03T13:45:59;17;17;
49644;PMS5003;36494;50.730;-1.932;2023-04-03T13:48:23;17;16;
49644;PMS5003;36494;50.730;-1.932;2023-04-03T13:50:50;20;20;
49644;PMS5003;36494;50.730;-1.932;2023-04-03T13:53:14;17;17;
49644;PMS5003;36494;50.730;-1.932;2023-04-03T14:00:33;18;17;
49644;PMS5003;36494;50.730;-1.932;2023-04-03T14:02:56;20;18;
49644;PMS5003;36494;50.730;-1.932;2023-04-03T14:05:23;19;19;
49644;PMS5003;36494;50.730;-1.932;2023-04-03T14:07:47;17;16;
49644;PMS5003;36494;50.730;-1.932;2023-04-03T14:10:13;20;19;
49644;PMS5003;36494;50.730;-1.932;2023-04-03T14:12:38;22;22;
49644;PMS5003;36494;50.730;-1.932;2023-04-03T14:15:05;21;21;
49644;PMS5003;36494;50.730;-1.932;2023-04-03T14:17:29;22;22;
49644;PMS5003;36494;50.730;-1.932;2023-04-03T14:19:54;21;21;
49644;PMS5003;36494;50.730;-1.932;2023-04-03T14:22:20;24;23;
49644;PMS5003;36494;50.730;-1.932;2023-04-03T14:24:44;23;22;
49644;PMS5003;36494;50.730;-1.932;2023-04-03T14:27:12;20;20;
49644;PMS5003;36494;50.730;-1.932;2023-04-03T14:29:35;26;25;
49644;PMS5003;36494;50.730;-1.932;2023-04-03T14:32:00;26;24;
49644;PMS5003;36494;50.730;-1.932;2023-04-03T14:34:25;26;25;
49644;PMS5003;36494;50.730;-1.932;2023-04-03T14:36:51;42;38;
49644;PMS5003;36494;50.730;-1.932;2023-04-03T14:39:17;22;21;
49644;PMS5003;36494;50.730;-1.932;2023-04-03T14:41:42;27;26;
49644;PMS5003;36494;50.730;-1.932;2023-04-03T14:44:07;23;22;
49644;PMS5003;36494;50.730;-1.932;2023-04-03T14:46:33;28;28;
49644;PMS5003;36494;50.730;-1.932;2023-04-03T14:48:57;22;22;
49644;PMS5003;36494;50.730;-1.932;2023-04-03T14:51:23;25;23;
49644;PMS5003;36494;50.730;-1.932;2023-04-03T14:53:48;24;24;
49644;PMS5003;36494;50.730;-1.932;2023-04-03T14:56:13;21;21;
49644;PMS5003;36494;50.730;-1.932;2023-04-03T14:58:38;14;14;
49644;PMS5003;36494;50.730;-1.932;2023-04-03T15:01:04;15;15;
49644;PMS5003;36494;50.730;-1.932;2023-04-03T15:03:29;13;13;
49644;PMS5003;36494;50.730;-1.932;2023-04-03T15:05:55;18;17;
49644;PMS5003;36494;50.730;-1.932;2023-04-03T15:08:21;14;14;
49644;PMS5003;36494;50.730;-1.932;2023-04-03T15:10:46;13;13;
49644;PMS5003;36494;50.730;-1.932;2023-04-03T15:13:11;13;12;
49644;PMS5003;36494;50.730;-1.932;2023-04-03T15:15:36;13;13;
49644;PMS5003;36494;50.730;-1.932;2023-04-03T15:18:01;10;9;
49644;PMS5003;36494;50.730;-1.932;2023-04-03T15:20:27;10;10;
49644;PMS5003;36494;50.730;-1.932;2023-04-03T15:22:51;18;16;
49644;PMS5003;36494;50.730;-1.932;2023-04-03T15:25:17;13;12;
49644;PMS5003;36494;50.730;-1.932;2023-04-03T15:27:42;10;10;
49644;PMS5003;36494;50.730;-1.932;2023-04-03T15:30:10;14;13;
49644;PMS5003;36494;50.730;-1.932;2023-04-03T15:32:33;14;13;
49644;PMS5003;36494;50.730;-1.932;2023-04-03T15:34:59;10;10;
49644;PMS5003;36494;50.730;-1.932;2023-04-03T15:37:24;9;8;
49644;PMS5003;36494;50.730;-1.932;2023-04-03T15:39:50;8;8;
49644;PMS5003;36494;50.730;-1.932;2023-04-03T15:42:15;8;8;
49644;PMS5003;36494;50.730;-1.932;2023-04-03T15:44:40;11;9;
49644;PMS5003;36494;50.730;-1.932;2023-04-03T15:47:06;7;7;
49644;PMS5003;36494;50.730;-1.932;2023-04-03T15:49:31;8;8;
49644;PMS5003;36494;50.730;-1.932;2023-04-03T15:51:56;8;8;
49644;PMS5003;36494;50.730;-1.932;2023-04-03T15:54:22;6;6;
49644;PMS5003;36494;50.730;-1.932;2023-04-03T15:56:47;8;7;
49644;PMS5003;36494;50.730;-1.932;2023-04-03T15:59:12;9;8;
49644;PMS5003;36494;50.730;-1.932;2023-04-03T16:01:38;7;7;
49644;PMS5003;36494;50.730;-1.932;2023-04-03T16:04:03;15;12;
49644;PMS5003;36494;50.730;-1.932;2023-04-03T16:06:28;8;8;
49644;PMS5003;36494;50.730;-1.932;2023-04-03T16:08:54;7;6;
49644;PMS5003;36494;50.730;-1.932;2023-04-03T16:11:19;8;7;
49644;PMS5003;36494;50.730;-1.932;2023-04-03T16:13:45;7;7;
49644;PMS5003;36494;50.730;-1.932;2023-04-03T16:16:10;8;8;
49644;PMS5003;36494;50.730;-1.932;2023-04-03T16:18:35;10;9;
49644;PMS5003;36494;50.730;-1.932;2023-04-03T16:21:00;9;8;
49644;PMS5003;36494;50.730;-1.932;2023-04-03T16:23:25;11;10;
49644;PMS5003;36494;50.730;-1.932;2023-04-03T16:25:51;8;8;
49644;PMS5003;36494;50.730;-1.932;2023-04-03T16:28:16;8;8;
49644;PMS5003;36494;50.730;-1.932;2023-04-03T16:30:41;11;11;
49644;PMS5003;36494;50.730;-1.932;2023-04-03T16:33:07;7;7;